PWSweather.com
Personal Weather Stations
Station Observations
RAINMAN1
Jacksonville, FL 32224

Jacksonville, FL 32224

Lat: 30.28041649, Lon: -81.46911621

Elevation: 26

Station Type: Tycon TP1080WC

Latest ConditionsUpdated 12:50:01 PM EDT Saturday, Aug 29, 2015
Currently Today's Max Today's Min Today's Average
Temperature 89.1°F31.7°C 90.1°F32.3°C 75.0°F23.9°C 79.9°F26.6°C
Dew Point 86.2°F30.1°C 89.0°F31.7°C 74.8°F23.8°C 79.3°F26.3°C
Winds 7.4 mph NE11.9 kmh NE 9.2 mph NE14.8 kmh NE - 1.8 mph 2.9 kmh
Wind Gusts 11.4 mph18.3 kmh 11.4 mph18.3 kmh - -
Humidity 91% 99% 87% 98%
Pressure 29.80 in1009.1 mb 29.80 in1009.1 mb 29.73 in1006.8 mb -
Precipitation - 0.06 in1.5 mm - -
Hour Temp Dew Point Humidity Winds Wind Gusts Pressure Precip Precip Rate Daily Precip Total
12:50 PM 89.1°F31.7°C 86.2°F30.1°C 91% 7.4 mph NE11.9 kmh NE 11.4 mph18.3 kmh 29.80 in1009.1 mb 0.00 in0.0 mm 0.00 in0.0 mm 0.06 in1.5 mm
12:45 PM 88.3°F31.3°C 85.8°F29.9°C 92% 8.7 mph NE14.0 kmh NE 11.4 mph18.3 kmh 29.80 in1009.1 mb 0.00 in0.0 mm 0.00 in0.0 mm 0.06 in1.5 mm
12:40 PM 88.9°F31.6°C 86.4°F30.2°C 92% 9.2 mph NE14.8 kmh NE 10.7 mph17.2 kmh 29.80 in1009.1 mb 0.00 in0.0 mm 0.00 in0.0 mm 0.06 in1.5 mm
12:35 PM 88.7°F31.5°C 85.5°F29.7°C 90% 7.8 mph NE12.6 kmh NE 10.7 mph17.2 kmh 29.80 in1009.1 mb 0.00 in0.0 mm 0.00 in0.0 mm 0.06 in1.5 mm
12:30 PM 88.9°F31.6°C 86.0°F30.0°C 91% 5.6 mph ENE9.0 kmh ENE 9.2 mph14.8 kmh 29.80 in1009.1 mb 0.00 in0.0 mm 0.00 in0.0 mm 0.06 in1.5 mm
12:25 PM 89.2°F31.8°C 86.4°F30.2°C 91% 3.4 mph NE5.5 kmh NE 6.9 mph11.1 kmh 29.80 in1009.1 mb 0.00 in0.0 mm 0.00 in0.0 mm 0.06 in1.5 mm
12:20 PM 89.1°F31.7°C 85.5°F29.7°C 89% 4.7 mph ENE7.6 kmh ENE 9.8 mph15.8 kmh 29.80 in1009.1 mb 0.00 in0.0 mm 0.00 in0.0 mm 0.06 in1.5 mm
12:15 PM 89.1°F31.7°C 85.1°F29.5°C 88% 6.7 mph E10.8 kmh E 9.8 mph15.8 kmh 29.80 in1009.1 mb 0.00 in0.0 mm 0.00 in0.0 mm 0.06 in1.5 mm
12:10 PM 89.6°F32.0°C 86.0°F30.0°C 89% 6.3 mph E10.1 kmh E 9.2 mph14.8 kmh 29.80 in1009.1 mb 0.00 in0.0 mm 0.00 in0.0 mm 0.06 in1.5 mm
12:05 PM 89.8°F32.1°C 85.8°F29.9°C 88% 6.7 mph E10.8 kmh E 9.2 mph14.8 kmh 29.80 in1009.1 mb 0.00 in0.0 mm 0.00 in0.0 mm 0.06 in1.5 mm
12:00 PM 90.0°F32.2°C 85.7°F29.8°C 87% 7.1 mph NE11.4 kmh NE 9.8 mph15.8 kmh 29.80 in1009.1 mb 0.00 in0.0 mm 0.00 in0.0 mm 0.06 in1.5 mm
11:55 AM 89.8°F32.1°C 85.5°F29.7°C 87% 7.3 mph NE11.7 kmh NE 9.8 mph15.8 kmh 29.80 in1009.1 mb 0.00 in0.0 mm 0.00 in0.0 mm 0.06 in1.5 mm
11:50 AM 90.0°F32.2°C 86.0°F30.0°C 88% 6.6 mph NE10.6 kmh NE 8.3 mph13.4 kmh 29.80 in1009.1 mb 0.00 in0.0 mm 0.00 in0.0 mm 0.06 in1.5 mm
11:45 AM 90.1°F32.3°C 86.9°F30.5°C 90% 6.1 mph NE9.8 kmh NE 9.2 mph14.8 kmh 29.80 in1009.1 mb 0.00 in0.0 mm 0.00 in0.0 mm 0.06 in1.5 mm
11:40 AM 88.5°F31.4°C 87.3°F30.7°C 96% 6.5 mph NNE10.5 kmh NNE 9.2 mph14.8 kmh 29.80 in1009.1 mb 0.00 in0.0 mm 0.00 in0.0 mm 0.06 in1.5 mm
11:35 AM 88.5°F31.4°C 86.7°F30.4°C 94% 6.1 mph NE9.8 kmh NE 9.2 mph14.8 kmh 29.80 in1009.1 mb 0.00 in0.0 mm 0.00 in0.0 mm 0.06 in1.5 mm
11:30 AM 88.7°F31.5°C 87.2°F30.7°C 95% 5.3 mph NE8.5 kmh NE 9.2 mph14.8 kmh 29.80 in1009.1 mb 0.00 in0.0 mm 0.00 in0.0 mm 0.06 in1.5 mm
11:25 AM 88.2°F31.2°C 86.0°F30.0°C 93% 4.6 mph N7.4 kmh N 7.6 mph12.2 kmh 29.80 in1009.1 mb 0.00 in0.0 mm 0.00 in0.0 mm 0.06 in1.5 mm
11:20 AM 88.0°F31.1°C 86.8°F30.4°C 96% 5.7 mph NNE9.2 kmh NNE 9.2 mph14.8 kmh 29.80 in1009.1 mb 0.00 in0.0 mm 0.00 in0.0 mm 0.06 in1.5 mm
11:15 AM 87.6°F30.9°C 86.4°F30.2°C 96% 6.1 mph N9.8 kmh N 9.2 mph14.8 kmh 29.80 in1009.1 mb 0.00 in0.0 mm 0.00 in0.0 mm 0.06 in1.5 mm
11:10 AM 88.5°F31.4°C 87.3°F30.7°C 96% 4.8 mph NNE7.7 kmh NNE 6.0 mph9.7 kmh 29.80 in1009.1 mb 0.00 in0.0 mm 0.00 in0.0 mm 0.06 in1.5 mm
11:05 AM 88.3°F31.3°C 87.2°F30.7°C 96% 5.2 mph ENE8.4 kmh ENE 7.6 mph12.2 kmh 29.80 in1009.1 mb 0.00 in0.0 mm 0.00 in0.0 mm 0.06 in1.5 mm
11:00 AM 87.8°F31.0°C 85.3°F29.6°C 92% 5.8 mph E9.3 kmh E 9.2 mph14.8 kmh 29.80 in1009.1 mb 0.00 in0.0 mm 0.00 in0.0 mm 0.06 in1.5 mm
10:55 AM 87.8°F31.0°C 84.9°F29.4°C 91% 5.1 mph ESE8.2 kmh ESE 9.2 mph14.8 kmh 29.80 in1009.1 mb 0.00 in0.0 mm 0.00 in0.0 mm 0.06 in1.5 mm
10:50 AM 89.6°F32.0°C 86.7°F30.4°C 91% 4.7 mph E7.6 kmh E 7.6 mph12.2 kmh 29.80 in1009.1 mb 0.00 in0.0 mm 0.00 in0.0 mm 0.06 in1.5 mm
10:45 AM 89.6°F32.0°C 86.7°F30.4°C 91% 5.1 mph NE8.2 kmh NE 9.8 mph15.8 kmh 29.80 in1009.1 mb 0.00 in0.0 mm 0.00 in0.0 mm 0.06 in1.5 mm
10:40 AM 89.1°F31.7°C 87.9°F31.1°C 96% 4.4 mph NE7.1 kmh NE 9.8 mph15.8 kmh 29.80 in1009.1 mb 0.00 in0.0 mm 0.00 in0.0 mm 0.06 in1.5 mm
10:35 AM 88.5°F31.4°C 88.3°F31.3°C 99% 4.9 mph NE7.9 kmh NE 7.6 mph12.2 kmh 29.80 in1009.1 mb 0.00 in0.0 mm 0.00 in0.0 mm 0.06 in1.5 mm
10:30 AM 87.6°F30.9°C 87.4°F30.8°C 99% 6.3 mph NE10.1 kmh NE 8.3 mph13.4 kmh 29.80 in1009.1 mb 0.00 in0.0 mm 0.00 in0.0 mm 0.06 in1.5 mm
10:25 AM 87.8°F31.0°C 87.6°F30.9°C 99% 5.3 mph NE8.5 kmh NE 8.3 mph13.4 kmh 29.80 in1009.1 mb 0.00 in0.0 mm 0.00 in0.0 mm 0.06 in1.5 mm
10:20 AM 89.2°F31.8°C 89.0°F31.7°C 99% 4.5 mph ENE7.2 kmh ENE 6.0 mph9.7 kmh 29.79 in1008.8 mb 0.00 in0.0 mm 0.00 in0.0 mm 0.06 in1.5 mm
10:15 AM 88.5°F31.4°C 88.3°F31.3°C 99% 4.3 mph NNE6.9 kmh NNE 6.0 mph9.7 kmh 29.80 in1009.1 mb 0.00 in0.0 mm 0.00 in0.0 mm 0.06 in1.5 mm
10:10 AM 88.7°F31.5°C 88.5°F31.4°C 99% 4.4 mph N7.1 kmh N 6.0 mph9.7 kmh 29.80 in1009.1 mb 0.00 in0.0 mm 0.00 in0.0 mm 0.06 in1.5 mm
10:05 AM 88.0°F31.1°C 87.8°F31.0°C 99% 4.7 mph NNW7.6 kmh NNW 6.0 mph9.7 kmh 29.80 in1009.1 mb 0.00 in0.0 mm 0.00 in0.0 mm 0.06 in1.5 mm
10:00 AM 88.0°F31.1°C 87.8°F31.0°C 99% 4.1 mph N6.6 kmh N 6.0 mph9.7 kmh 29.80 in1009.1 mb 0.00 in0.0 mm 0.00 in0.0 mm 0.06 in1.5 mm
09:55 AM 88.0°F31.1°C 87.8°F31.0°C 99% 3.7 mph N6.0 kmh N 6.0 mph9.7 kmh 29.80 in1009.1 mb 0.00 in0.0 mm 0.00 in0.0 mm 0.06 in1.5 mm
09:50 AM 87.8°F31.0°C 87.6°F30.9°C 99% 3.3 mph N5.3 kmh N 4.5 mph7.2 kmh 29.80 in1009.1 mb 0.00 in0.0 mm 0.00 in0.0 mm 0.06 in1.5 mm
09:45 AM 86.9°F30.5°C 86.7°F30.4°C 99% 2.9 mph N4.7 kmh N 4.5 mph7.2 kmh 29.80 in1009.1 mb 0.00 in0.0 mm 0.00 in0.0 mm 0.06 in1.5 mm
09:40 AM 86.2°F30.1°C 86.0°F30.0°C 99% 2.3 mph N3.7 kmh N 4.5 mph7.2 kmh 29.80 in1009.1 mb 0.00 in0.0 mm 0.00 in0.0 mm 0.06 in1.5 mm
09:35 AM 85.5°F29.7°C 85.2°F29.6°C 99% 2.2 mph N3.5 kmh N 3.1 mph5.0 kmh 29.80 in1009.1 mb 0.00 in0.0 mm 0.00 in0.0 mm 0.06 in1.5 mm
09:30 AM 85.5°F29.7°C 85.2°F29.6°C 99% 2.2 mph N3.5 kmh N 3.1 mph5.0 kmh 29.80 in1009.1 mb 0.00 in0.0 mm 0.00 in0.0 mm 0.06 in1.5 mm
09:25 AM 85.8°F29.9°C 85.6°F29.8°C 99% 2.0 mph N3.2 kmh N 3.1 mph5.0 kmh 29.80 in1009.1 mb 0.00 in0.0 mm 0.00 in0.0 mm 0.06 in1.5 mm
09:20 AM 85.3°F29.6°C 85.1°F29.5°C 99% 1.7 mph N2.7 kmh N 3.1 mph5.0 kmh 29.80 in1009.1 mb 0.01 in0.3 mm 0.00 in0.0 mm 0.06 in1.5 mm
09:15 AM 85.1°F29.5°C 84.9°F29.4°C 99% 1.8 mph N2.9 kmh N 3.8 mph6.1 kmh 29.79 in1008.8 mb 0.01 in0.3 mm 0.00 in0.0 mm 0.06 in1.5 mm
09:10 AM 84.6°F29.2°C 84.3°F29.1°C 99% 2.3 mph NNE3.7 kmh NNE 3.8 mph6.1 kmh 29.80 in1009.1 mb 0.01 in0.3 mm 0.00 in0.0 mm 0.06 in1.5 mm
09:05 AM 84.7°F29.3°C 84.5°F29.2°C 99% 2.4 mph NNE3.9 kmh NNE 3.1 mph5.0 kmh 29.79 in1008.8 mb 0.07 in1.8 mm 0.00 in0.0 mm 0.06 in1.5 mm
09:00 AM 84.7°F29.3°C 84.5°F29.2°C 99% 2.8 mph N4.5 kmh N 3.8 mph6.1 kmh 29.79 in1008.8 mb 0.07 in1.8 mm 0.00 in0.0 mm 0.06 in1.5 mm
08:55 AM 84.2°F29.0°C 84.0°F28.9°C 99% 2.9 mph N4.7 kmh N 3.8 mph6.1 kmh 29.79 in1008.8 mb 0.07 in1.8 mm 0.00 in0.0 mm 0.06 in1.5 mm
08:50 AM 83.8°F28.8°C 83.6°F28.7°C 99% 2.7 mph N4.3 kmh N 3.8 mph6.1 kmh 29.80 in1009.1 mb 0.07 in1.8 mm 0.00 in0.0 mm 0.06 in1.5 mm
08:45 AM 83.1°F28.4°C 82.9°F28.3°C 99% 2.4 mph N3.9 kmh N 3.8 mph6.1 kmh 29.79 in1008.8 mb 0.07 in1.8 mm 0.00 in0.0 mm 0.06 in1.5 mm
08:40 AM 82.4°F28.0°C 82.2°F27.9°C 99% 2.5 mph N4.0 kmh N 3.8 mph6.1 kmh 29.79 in1008.8 mb 0.07 in1.8 mm 0.00 in0.0 mm 0.06 in1.5 mm
08:35 AM 81.5°F27.5°C 81.3°F27.4°C 99% 2.6 mph N4.2 kmh N 3.1 mph5.0 kmh 29.79 in1008.8 mb 0.07 in1.8 mm 0.00 in0.0 mm 0.06 in1.5 mm
08:30 AM 81.3°F27.4°C 81.1°F27.3°C 99% 2.1 mph N3.4 kmh N 3.1 mph5.0 kmh 29.79 in1008.8 mb 0.07 in1.8 mm 0.00 in0.0 mm 0.06 in1.5 mm
08:25 AM 81.0°F27.2°C 80.7°F27.1°C 99% 1.3 mph NE2.1 kmh NE 3.1 mph5.0 kmh 29.79 in1008.8 mb 0.07 in1.8 mm 0.24 in6.1 mm 0.06 in1.5 mm
08:20 AM 79.9°F26.6°C 79.6°F26.4°C 99% 1.7 mph NNE2.7 kmh NNE 4.5 mph7.2 kmh 29.79 in1008.8 mb 0.05 in1.3 mm 0.00 in0.0 mm 0.05 in1.3 mm
08:15 AM 78.4°F25.8°C 78.2°F25.7°C 99% 3.1 mph N5.0 kmh N 6.0 mph9.7 kmh 29.79 in1008.8 mb 0.05 in1.3 mm 0.00 in0.0 mm 0.05 in1.3 mm
08:10 AM 77.7°F25.4°C 77.5°F25.3°C 99% 2.7 mph NNE4.3 kmh NNE 6.0 mph9.7 kmh 29.79 in1008.8 mb 0.05 in1.3 mm 0.60 in15.2 mm 0.05 in1.3 mm
08:05 AM 76.8°F24.9°C 76.6°F24.8°C 99% 0.9 mph NE1.4 kmh NE 1.6 mph2.6 kmh 29.79 in1008.8 mb 0.00 in0.0 mm 0.00 in0.0 mm 0.00 in0.0 mm
08:00 AM 76.8°F24.9°C 76.6°F24.8°C 99% 0.7 mph NE1.1 kmh NE 2.2 mph3.5 kmh 29.78 in1008.5 mb 0.00 in0.0 mm 0.00 in0.0 mm 0.00 in0.0 mm
07:55 AM 76.6°F24.8°C 76.4°F24.7°C 99% 1.2 mph NE1.9 kmh NE 2.2 mph3.5 kmh 29.78 in1008.5 mb 0.00 in0.0 mm 0.00 in0.0 mm 0.00 in0.0 mm
07:50 AM 76.5°F24.7°C 76.2°F24.6°C 99% 0.7 mph NE1.1 kmh NE 1.6 mph2.6 kmh 29.78 in1008.5 mb 0.00 in0.0 mm 0.00 in0.0 mm 0.00 in0.0 mm
07:45 AM 76.3°F24.6°C 76.0°F24.4°C 99% 0.2 mph NE0.3 kmh NE 1.6 mph2.6 kmh 29.78 in1008.5 mb 0.00 in0.0 mm 0.00 in0.0 mm 0.00 in0.0 mm
07:40 AM 76.1°F24.5°C 75.9°F24.4°C 99% 0.3 mph NE0.5 kmh NE 0.7 mph1.1 kmh 29.77 in1008.1 mb 0.00 in0.0 mm 0.00 in0.0 mm 0.00 in0.0 mm
07:35 AM 75.9°F24.4°C 75.7°F24.3°C 99% 0.7 mph NE1.1 kmh NE 2.2 mph3.5 kmh 29.77 in1008.1 mb 0.00 in0.0 mm 0.00 in0.0 mm 0.00 in0.0 mm
07:30 AM 75.6°F24.2°C 75.3°F24.1°C 99% 1.5 mph NE2.4 kmh NE 2.2 mph3.5 kmh 29.77 in1008.1 mb 0.00 in0.0 mm 0.00 in0.0 mm 0.00 in0.0 mm
07:25 AM 75.6°F24.2°C 75.3°F24.1°C 99% 1.2 mph NE1.9 kmh NE 2.2 mph3.5 kmh 29.77 in1008.1 mb 0.00 in0.0 mm 0.00 in0.0 mm 0.00 in0.0 mm
07:20 AM 75.2°F24.0°C 75.0°F23.9°C 99% 0.3 mph NE0.5 kmh NE 0.7 mph1.1 kmh 29.76 in1007.8 mb 0.00 in0.0 mm 0.00 in0.0 mm 0.00 in0.0 mm
07:15 AM 75.2°F24.0°C 75.0°F23.9°C 99% 0.3 mph NE0.5 kmh NE 0.7 mph1.1 kmh 29.76 in1007.8 mb 0.00 in0.0 mm 0.00 in0.0 mm 0.00 in0.0 mm
07:10 AM 75.0°F23.9°C 74.8°F23.8°C 99% 0.5 mph NE0.8 kmh NE 0.7 mph1.1 kmh 29.76 in1007.8 mb 0.00 in0.0 mm 0.00 in0.0 mm 0.00 in0.0 mm
07:05 AM 75.2°F24.0°C 75.0°F23.9°C 99% 0.4 mph NE0.6 kmh NE 0.7 mph1.1 kmh 29.76 in1007.8 mb 0.00 in0.0 mm 0.00 in0.0 mm 0.00 in0.0 mm
07:00 AM 75.2°F24.0°C 75.0°F23.9°C 99% 0.2 mph NE0.3 kmh NE 0.7 mph1.1 kmh 29.75 in1007.5 mb 0.00 in0.0 mm 0.00 in0.0 mm 0.00 in0.0 mm
06:55 AM 75.2°F24.0°C 75.0°F23.9°C 99% 0.1 mph NE0.2 kmh NE 0.7 mph1.1 kmh 29.75 in1007.5 mb 0.00 in0.0 mm 0.00 in0.0 mm 0.00 in0.0 mm
06:50 AM 75.2°F24.0°C 75.0°F23.9°C 99% 0.1 mph NE0.2 kmh NE 0.7 mph1.1 kmh 29.75 in1007.5 mb 0.00 in0.0 mm 0.00 in0.0 mm 0.00 in0.0 mm
06:45 AM 75.2°F24.0°C 75.0°F23.9°C 99% 0.2 mph NE0.3 kmh NE 0.7 mph1.1 kmh 29.75 in1007.5 mb 0.00 in0.0 mm 0.00 in0.0 mm 0.00 in0.0 mm
06:40 AM 75.2°F24.0°C 75.0°F23.9°C 99% 0.4 mph NE0.6 kmh NE 0.7 mph1.1 kmh 29.75 in1007.5 mb 0.00 in0.0 mm 0.00 in0.0 mm 0.00 in0.0 mm
06:35 AM 75.2°F24.0°C 75.0°F23.9°C 99% 0.5 mph NE0.8 kmh NE 1.6 mph2.6 kmh 29.75 in1007.5 mb 0.00 in0.0 mm 0.00 in0.0 mm 0.00 in0.0 mm
06:30 AM 75.4°F24.1°C 75.1°F23.9°C 99% 0.6 mph NE1.0 kmh NE 1.6 mph2.6 kmh 29.75 in1007.5 mb 0.00 in0.0 mm 0.00 in0.0 mm 0.00 in0.0 mm
06:25 AM 75.2°F24.0°C 75.0°F23.9°C 99% 1.1 mph NE1.8 kmh NE 2.2 mph3.5 kmh 29.75 in1007.5 mb 0.00 in0.0 mm 0.00 in0.0 mm 0.00 in0.0 mm
06:20 AM 75.4°F24.1°C 75.1°F23.9°C 99% 1.0 mph NE1.6 kmh NE 2.2 mph3.5 kmh 29.74 in1007.1 mb 0.00 in0.0 mm 0.00 in0.0 mm 0.00 in0.0 mm
06:15 AM 75.2°F24.0°C 75.0°F23.9°C 99% 0.2 mph NE0.3 kmh NE 2.2 mph3.5 kmh 29.75 in1007.5 mb 0.00 in0.0 mm 0.00 in0.0 mm 0.00 in0.0 mm
06:10 AM 75.0°F23.9°C 74.8°F23.8°C 99% Calm Calm -- 29.74 in1007.1 mb 0.00 in0.0 mm 0.00 in0.0 mm 0.00 in0.0 mm
06:05 AM 75.2°F24.0°C 75.0°F23.9°C 99% Calm Calm -- 29.75 in1007.5 mb 0.00 in0.0 mm 0.00 in0.0 mm 0.00 in0.0 mm
06:00 AM 75.2°F24.0°C 75.0°F23.9°C 99% Calm Calm -- 29.74 in1007.1 mb 0.00 in0.0 mm 0.00 in0.0 mm 0.00 in0.0 mm
05:55 AM 75.2°F24.0°C 75.0°F23.9°C 99% Calm Calm -- 29.75 in1007.5 mb 0.00 in0.0 mm 0.00 in0.0 mm 0.00 in0.0 mm
05:50 AM 75.2°F24.0°C 75.0°F23.9°C 99% Calm Calm -- 29.75 in1007.5 mb 0.00 in0.0 mm 0.00 in0.0 mm 0.00 in0.0 mm
05:45 AM 75.2°F24.0°C 75.0°F23.9°C 99% Calm Calm -- 29.74 in1007.1 mb 0.00 in0.0 mm 0.00 in0.0 mm 0.00 in0.0 mm
05:40 AM 75.2°F24.0°C 75.0°F23.9°C 99% Calm Calm -- 29.74 in1007.1 mb 0.00 in0.0 mm 0.00 in0.0 mm 0.00 in0.0 mm
05:35 AM 75.2°F24.0°C 75.0°F23.9°C 99% Calm Calm -- 29.74 in1007.1 mb 0.00 in0.0 mm 0.00 in0.0 mm 0.00 in0.0 mm
05:30 AM 75.2°F24.0°C 75.0°F23.9°C 99% Calm Calm -- 29.73 in1006.8 mb 0.00 in0.0 mm 0.00 in0.0 mm 0.00 in0.0 mm
05:25 AM 75.2°F24.0°C 75.0°F23.9°C 99% Calm Calm -- 29.74 in1007.1 mb 0.00 in0.0 mm 0.00 in0.0 mm 0.00 in0.0 mm
05:20 AM 75.4°F24.1°C 75.1°F23.9°C 99% Calm Calm -- 29.74 in1007.1 mb 0.00 in0.0 mm 0.00 in0.0 mm 0.00 in0.0 mm
05:15 AM 75.4°F24.1°C 75.1°F23.9°C 99% Calm Calm -- 29.74 in1007.1 mb 0.00 in0.0 mm 0.00 in0.0 mm 0.00 in0.0 mm
05:10 AM 75.6°F24.2°C 75.3°F24.1°C 99% Calm Calm -- 29.74 in1007.1 mb 0.00 in0.0 mm 0.00 in0.0 mm 0.00 in0.0 mm
05:05 AM 75.7°F24.3°C 75.5°F24.2°C 99% Calm Calm -- 29.74 in1007.1 mb 0.00 in0.0 mm 0.00 in0.0 mm 0.00 in0.0 mm
05:00 AM 75.7°F24.3°C 75.5°F24.2°C 99% Calm Calm -- 29.74 in1007.1 mb 0.00 in0.0 mm 0.00 in0.0 mm 0.00 in0.0 mm
04:55 AM 75.7°F24.3°C 75.5°F24.2°C 99% Calm Calm -- 29.74 in1007.1 mb 0.00 in0.0 mm 0.00 in0.0 mm 0.00 in0.0 mm
04:50 AM 75.9°F24.4°C 75.7°F24.3°C 99% Calm Calm -- 29.74 in1007.1 mb 0.00 in0.0 mm 0.00 in0.0 mm 0.00 in0.0 mm
04:45 AM 75.9°F24.4°C 75.7°F24.3°C 99% Calm Calm -- 29.74 in1007.1 mb 0.00 in0.0 mm 0.00 in0.0 mm 0.00 in0.0 mm
04:40 AM 75.9°F24.4°C 75.7°F24.3°C 99% Calm Calm -- 29.74 in1007.1 mb 0.00 in0.0 mm 0.00 in0.0 mm 0.00 in0.0 mm
04:35 AM 76.1°F24.5°C 75.9°F24.4°C 99% Calm Calm -- 29.74 in1007.1 mb 0.00 in0.0 mm 0.00 in0.0 mm 0.00 in0.0 mm
04:30 AM 76.1°F24.5°C 75.9°F24.4°C 99% 0.1 mph NE0.2 kmh NE 0.7 mph1.1 kmh 29.74 in1007.1 mb 0.00 in0.0 mm 0.00 in0.0 mm 0.00 in0.0 mm
04:25 AM 75.9°F24.4°C 75.7°F24.3°C 99% 0.1 mph NE0.2 kmh NE 0.7 mph1.1 kmh 29.74 in1007.1 mb 0.00 in0.0 mm 0.00 in0.0 mm 0.00 in0.0 mm
04:20 AM 75.9°F24.4°C 75.7°F24.3°C 99% Calm Calm -- 29.74 in1007.1 mb 0.00 in0.0 mm 0.00 in0.0 mm 0.00 in0.0 mm
04:15 AM 75.9°F24.4°C 75.7°F24.3°C 99% Calm Calm -- 29.74 in1007.1 mb 0.00 in0.0 mm 0.00 in0.0 mm 0.00 in0.0 mm
04:10 AM 76.1°F24.5°C 75.9°F24.4°C 99% Calm Calm -- 29.74 in1007.1 mb 0.00 in0.0 mm 0.00 in0.0 mm 0.00 in0.0 mm
04:05 AM 76.3°F24.6°C 76.0°F24.4°C 99% 0.1 mph NE0.2 kmh NE 0.7 mph1.1 kmh 29.74 in1007.1 mb 0.00 in0.0 mm 0.00 in0.0 mm 0.00 in0.0 mm
04:00 AM 76.3°F24.6°C 76.0°F24.4°C 99% 0.5 mph NE0.8 kmh NE 1.6 mph2.6 kmh 29.74 in1007.1 mb 0.00 in0.0 mm 0.00 in0.0 mm 0.00 in0.0 mm
03:55 AM 76.3°F24.6°C 76.0°F24.4°C 99% 1.1 mph NE1.8 kmh NE 1.6 mph2.6 kmh 29.73 in1006.8 mb 0.00 in0.0 mm 0.00 in0.0 mm 0.00 in0.0 mm
03:50 AM 76.3°F24.6°C 76.0°F24.4°C 99% 0.7 mph NE1.1 kmh NE 1.6 mph2.6 kmh 29.74 in1007.1 mb 0.00 in0.0 mm 0.00 in0.0 mm 0.00 in0.0 mm
03:45 AM 76.3°F24.6°C 76.0°F24.4°C 99% 0.1 mph NE0.2 kmh NE 0.7 mph1.1 kmh 29.73 in1006.8 mb 0.00 in0.0 mm 0.00 in0.0 mm 0.00 in0.0 mm
03:40 AM 76.3°F24.6°C 76.0°F24.4°C 99% Calm Calm -- 29.74 in1007.1 mb 0.00 in0.0 mm 0.00 in0.0 mm 0.00 in0.0 mm
03:35 AM 76.3°F24.6°C 76.0°F24.4°C 99% Calm Calm -- 29.73 in1006.8 mb 0.00 in0.0 mm 0.00 in0.0 mm 0.00 in0.0 mm
03:30 AM 76.3°F24.6°C 76.0°F24.4°C 99% Calm Calm -- 29.73 in1006.8 mb 0.00 in0.0 mm 0.00 in0.0 mm 0.00 in0.0 mm
03:25 AM 76.3°F24.6°C 76.0°F24.4°C 99% Calm Calm -- 29.73 in1006.8 mb 0.00 in0.0 mm 0.00 in0.0 mm 0.00 in0.0 mm
03:20 AM 76.3°F24.6°C 76.0°F24.4°C 99% Calm Calm -- 29.73 in1006.8 mb 0.00 in0.0 mm 0.00 in0.0 mm 0.00 in0.0 mm
03:15 AM 76.3°F24.6°C 76.0°F24.4°C 99% Calm Calm -- 29.73 in1006.8 mb 0.00 in0.0 mm 0.00 in0.0 mm 0.00 in0.0 mm
03:10 AM 76.3°F24.6°C 76.0°F24.4°C 99% Calm Calm -- 29.74 in1007.1 mb 0.00 in0.0 mm 0.00 in0.0 mm 0.00 in0.0 mm
03:05 AM 76.3°F24.6°C 76.0°F24.4°C 99% Calm Calm -- 29.74 in1007.1 mb 0.00 in0.0 mm 0.00 in0.0 mm 0.00 in0.0 mm
03:00 AM 76.3°F24.6°C 76.0°F24.4°C 99% Calm Calm -- 29.74 in1007.1 mb 0.00 in0.0 mm 0.00 in0.0 mm 0.00 in0.0 mm
02:55 AM 76.3°F24.6°C 76.0°F24.4°C 99% Calm Calm -- 29.74 in1007.1 mb 0.00 in0.0 mm 0.00 in0.0 mm 0.00 in0.0 mm
02:50 AM 76.3°F24.6°C 76.0°F24.4°C 99% Calm Calm -- 29.74 in1007.1 mb 0.00 in0.0 mm 0.00 in0.0 mm 0.00 in0.0 mm
02:45 AM 76.3°F24.6°C 76.0°F24.4°C 99% Calm Calm -- 29.74 in1007.1 mb 0.00 in0.0 mm 0.00 in0.0 mm 0.00 in0.0 mm
02:40 AM 76.3°F24.6°C 76.0°F24.4°C 99% Calm Calm -- 29.74 in1007.1 mb 0.00 in0.0 mm 0.00 in0.0 mm 0.00 in0.0 mm
02:35 AM 76.3°F24.6°C 76.0°F24.4°C 99% Calm Calm -- 29.74 in1007.1 mb 0.00 in0.0 mm 0.00 in0.0 mm 0.00 in0.0 mm
02:30 AM 76.3°F24.6°C 76.0°F24.4°C 99% Calm Calm -- 29.74 in1007.1 mb 0.00 in0.0 mm 0.00 in0.0 mm 0.00 in0.0 mm
02:25 AM 76.3°F24.6°C 76.0°F24.4°C 99% Calm Calm -- 29.74 in1007.1 mb 0.00 in0.0 mm 0.00 in0.0 mm 0.00 in0.0 mm
02:20 AM 76.3°F24.6°C 76.0°F24.4°C 99% Calm Calm -- 29.75 in1007.5 mb 0.00 in0.0 mm 0.00 in0.0 mm 0.00 in0.0 mm
02:15 AM 76.1°F24.5°C 75.9°F24.4°C 99% Calm Calm -- 29.74 in1007.1 mb 0.00 in0.0 mm 0.00 in0.0 mm 0.00 in0.0 mm
02:10 AM 76.3°F24.6°C 76.0°F24.4°C 99% Calm Calm -- 29.74 in1007.1 mb 0.00 in0.0 mm 0.00 in0.0 mm 0.00 in0.0 mm
02:05 AM 76.3°F24.6°C 76.0°F24.4°C 99% Calm Calm -- 29.75 in1007.5 mb 0.00 in0.0 mm 0.00 in0.0 mm 0.00 in0.0 mm
02:00 AM 76.3°F24.6°C 76.0°F24.4°C 99% Calm Calm -- 29.75 in1007.5 mb 0.00 in0.0 mm 0.00 in0.0 mm 0.00 in0.0 mm
01:55 AM 76.3°F24.6°C 76.0°F24.4°C 99% Calm Calm -- 29.75 in1007.5 mb 0.00 in0.0 mm 0.00 in0.0 mm 0.00 in0.0 mm
01:50 AM 76.1°F24.5°C 75.9°F24.4°C 99% Calm Calm -- 29.75 in1007.5 mb 0.00 in0.0 mm 0.00 in0.0 mm 0.00 in0.0 mm
01:45 AM 76.1°F24.5°C 75.9°F24.4°C 99% Calm Calm -- 29.75 in1007.5 mb 0.00 in0.0 mm 0.00 in0.0 mm 0.00 in0.0 mm
01:40 AM 76.1°F24.5°C 75.9°F24.4°C 99% Calm Calm -- 29.75 in1007.5 mb 0.00 in0.0 mm 0.00 in0.0 mm 0.00 in0.0 mm
01:35 AM 76.5°F24.7°C 76.2°F24.6°C 99% 0.2 mph NE0.3 kmh NE 0.7 mph1.1 kmh 29.75 in1007.5 mb 0.00 in0.0 mm 0.00 in0.0 mm 0.00 in0.0 mm
01:30 AM 76.3°F24.6°C 76.0°F24.4°C 99% 0.2 mph NE0.3 kmh NE 0.7 mph1.1 kmh 29.75 in1007.5 mb 0.00 in0.0 mm 0.00 in0.0 mm 0.00 in0.0 mm
01:25 AM 76.3°F24.6°C 76.0°F24.4°C 99% Calm Calm -- 29.75 in1007.5 mb 0.00 in0.0 mm 0.00 in0.0 mm 0.00 in0.0 mm
01:20 AM 76.3°F24.6°C 76.0°F24.4°C 99% Calm Calm -- 29.76 in1007.8 mb 0.00 in0.0 mm 0.00 in0.0 mm 0.00 in0.0 mm
01:15 AM 76.3°F24.6°C 76.0°F24.4°C 99% Calm Calm -- 29.76 in1007.8 mb 0.00 in0.0 mm 0.00 in0.0 mm 0.00 in0.0 mm
01:10 AM 76.3°F24.6°C 76.0°F24.4°C 99% Calm Calm -- 29.76 in1007.8 mb 0.00 in0.0 mm 0.00 in0.0 mm 0.00 in0.0 mm
01:05 AM 76.1°F24.5°C 75.9°F24.4°C 99% Calm Calm -- 29.76 in1007.8 mb 0.00 in0.0 mm 0.00 in0.0 mm 0.00 in0.0 mm
01:00 AM 76.1°F24.5°C 75.9°F24.4°C 99% Calm Calm -- 29.76 in1007.8 mb 0.00 in0.0 mm 0.00 in0.0 mm 0.00 in0.0 mm
12:55 AM 75.9°F24.4°C 75.7°F24.3°C 99% Calm Calm -- 29.76 in1007.8 mb 0.00 in0.0 mm 0.00 in0.0 mm 0.00 in0.0 mm
12:50 AM 76.1°F24.5°C 75.9°F24.4°C 99% 0.1 mph NE0.2 kmh NE 0.7 mph1.1 kmh 29.76 in1007.8 mb 0.00 in0.0 mm 0.00 in0.0 mm 0.00 in0.0 mm
12:45 AM 76.1°F24.5°C 75.9°F24.4°C 99% 0.2 mph NE0.3 kmh NE 0.7 mph1.1 kmh 29.76 in1007.8 mb 0.00 in0.0 mm 0.00 in0.0 mm 0.00 in0.0 mm
12:40 AM 75.9°F24.4°C 75.7°F24.3°C 99% 0.4 mph NE0.6 kmh NE 0.7 mph1.1 kmh 29.77 in1008.1 mb 0.00 in0.0 mm 0.00 in0.0 mm 0.00 in0.0 mm
12:35 AM 75.9°F24.4°C 75.7°F24.3°C 99% 0.2 mph NE0.3 kmh NE 0.7 mph1.1 kmh 29.76 in1007.8 mb 0.00 in0.0 mm 0.00 in0.0 mm 0.00 in0.0 mm
12:30 AM 75.9°F24.4°C 75.7°F24.3°C 99% 0.3 mph NE0.5 kmh NE 1.6 mph2.6 kmh 29.76 in1007.8 mb 0.00 in0.0 mm 0.00 in0.0 mm 0.00 in0.0 mm
12:25 AM 75.9°F24.4°C 75.7°F24.3°C 99% 0.3 mph NE0.5 kmh NE 1.6 mph2.6 kmh 29.76 in1007.8 mb 0.00 in0.0 mm 0.00 in0.0 mm 0.00 in0.0 mm
12:20 AM 75.9°F24.4°C 75.7°F24.3°C 99% 0.2 mph NE0.3 kmh NE 0.7 mph1.1 kmh 29.76 in1007.8 mb 0.00 in0.0 mm 0.00 in0.0 mm 0.00 in0.0 mm
12:15 AM 75.9°F24.4°C 75.7°F24.3°C 99% 0.6 mph NE1.0 kmh NE 1.6 mph2.6 kmh 29.76 in1007.8 mb 0.00 in0.0 mm 0.00 in0.0 mm 0.00 in0.0 mm
12:10 AM 75.9°F24.4°C 75.7°F24.3°C 99% 1.2 mph NE1.9 kmh NE 1.6 mph2.6 kmh 29.76 in1007.8 mb 0.00 in0.0 mm 0.00 in0.0 mm 0.00 in0.0 mm
12:05 AM 75.9°F24.4°C 75.7°F24.3°C 99% 1.4 mph NE2.3 kmh NE 1.6 mph2.6 kmh 29.76 in1007.8 mb 0.00 in0.0 mm 0.00 in0.0 mm 0.00 in0.0 mm
12:00 AM 75.9°F24.4°C 75.7°F24.3°C 99% 0.6 mph NE1.0 kmh NE 1.6 mph2.6 kmh 29.77 in1008.1 mb 0.00 in0.0 mm 0.00 in0.0 mm 0.00 in0.0 mm